Knowlton Heights, Idaho
Current Conditions -  °F | °C
As of 11:15 AM on Friday 19 Dec 2014 (Local Time) from KEUL Reporting Station
Overcast Overcast  
Wind Chill: 33°   Ceiling: 3300
Heat Index: 39°   Visibility: 10mi
Dew Point: 32°   Wind: 9mph
Humidity: 75%   Direction: 70°ENE
Pressure: 30.08"   Gusts: NA
Location:  43.676°N, 116.752°W
Report Text: KEUL 191815Z AUTO 07008KT 10SM OVC033 04/00 A3008 RMK AO1 P0002
Loading
Personal Weather Stations






























Interactive Weather Map New forecast layout! Learn more

10-Day Weather Forecast

Advertisements
Track Severe Weather on mobile